sensor_id;sensor_type;location;lat;lon;timestamp;P1;durP1;ratioP1;P2;durP2;ratioP2
8654;SDS011;13500;52.514;13.462;2023-12-04T00:00:25;29.77;;;18.63;;
8654;SDS011;13500;52.514;13.462;2023-12-04T00:02:56;34.27;;;18.20;;
8654;SDS011;13500;52.514;13.462;2023-12-04T00:05:26;32.07;;;17.90;;
8654;SDS011;13500;52.514;13.462;2023-12-04T00:07:55;32.90;;;18.40;;
8654;SDS011;13500;52.514;13.462;2023-12-04T00:10:23;34.17;;;18.43;;
8654;SDS011;13500;52.514;13.462;2023-12-04T00:12:51;30.40;;;17.17;;
8654;SDS011;13500;52.514;13.462;2023-12-04T00:15:22;29.53;;;17.30;;
8654;SDS011;13500;52.514;13.462;2023-12-04T00:17:50;33.40;;;16.87;;
8654;SDS011;13500;52.514;13.462;2023-12-04T00:20:19;27.97;;;17.00;;
8654;SDS011;13500;52.514;13.462;2023-12-04T00:22:47;31.87;;;18.63;;
8654;SDS011;13500;52.514;13.462;2023-12-04T00:25:17;33.73;;;18.67;;
8654;SDS011;13500;52.514;13.462;2023-12-04T00:27:45;34.27;;;19.10;;
8654;SDS011;13500;52.514;13.462;2023-12-04T00:30:14;33.37;;;19.40;;
8654;SDS011;13500;52.514;13.462;2023-12-04T00:32:42;35.97;;;19.80;;
8654;SDS011;13500;52.514;13.462;2023-12-04T00:35:11;32.57;;;18.97;;
8654;SDS011;13500;52.514;13.462;2023-12-04T00:37:39;35.83;;;19.60;;
8654;SDS011;13500;52.514;13.462;2023-12-04T00:40:07;33.17;;;19.00;;
8654;SDS011;13500;52.514;13.462;2023-12-04T00:42:38;34.10;;;18.20;;
8654;SDS011;13500;52.514;13.462;2023-12-04T00:45:06;32.83;;;18.90;;
8654;SDS011;13500;52.514;13.462;2023-12-04T00:47:35;32.53;;;18.10;;
8654;SDS011;13500;52.514;13.462;2023-12-04T00:50:03;33.57;;;19.07;;
8654;SDS011;13500;52.514;13.462;2023-12-04T00:52:32;34.03;;;18.10;;
8654;SDS011;13500;52.514;13.462;2023-12-04T00:55:01;36.20;;;18.50;;
8654;SDS011;13500;52.514;13.462;2023-12-04T00:57:30;31.63;;;17.83;;
8654;SDS011;13500;52.514;13.462;2023-12-04T00:59:59;34.13;;;19.30;;
8654;SDS011;13500;52.514;13.462;2023-12-04T01:02:28;31.93;;;18.37;;
8654;SDS011;13500;52.514;13.462;2023-12-04T01:04:57;29.93;;;18.53;;
8654;SDS011;13500;52.514;13.462;2023-12-04T01:07:25;36.17;;;18.83;;
8654;SDS011;13500;52.514;13.462;2023-12-04T01:09:53;35.93;;;19.43;;
8654;SDS011;13500;52.514;13.462;2023-12-04T01:12:22;30.77;;;18.30;;
8654;SDS011;13500;52.514;13.462;2023-12-04T01:14:51;36.20;;;20.73;;
8654;SDS011;13500;52.514;13.462;2023-12-04T01:17:22;34.23;;;18.77;;
8654;SDS011;13500;52.514;13.462;2023-12-04T01:19:50;35.23;;;20.03;;
8654;SDS011;13500;52.514;13.462;2023-12-04T01:22:19;33.23;;;18.80;;
8654;SDS011;13500;52.514;13.462;2023-12-04T01:24:47;35.97;;;20.30;;
8654;SDS011;13500;52.514;13.462;2023-12-04T01:27:15;35.00;;;18.97;;
8654;SDS011;13500;52.514;13.462;2023-12-04T01:29:44;37.40;;;19.00;;
8654;SDS011;13500;52.514;13.462;2023-12-04T01:32:12;34.90;;;18.60;;
8654;SDS011;13500;52.514;13.462;2023-12-04T01:34:41;35.67;;;19.23;;
8654;SDS011;13500;52.514;13.462;2023-12-04T01:37:09;33.30;;;18.60;;
8654;SDS011;13500;52.514;13.462;2023-12-04T01:39:40;37.07;;;19.60;;
8654;SDS011;13500;52.514;13.462;2023-12-04T01:42:09;34.10;;;19.47;;
8654;SDS011;13500;52.514;13.462;2023-12-04T01:44:38;39.90;;;18.80;;
8654;SDS011;13500;52.514;13.462;2023-12-04T01:47:07;34.07;;;19.13;;
8654;SDS011;13500;52.514;13.462;2023-12-04T01:49:37;37.07;;;21.33;;
8654;SDS011;13500;52.514;13.462;2023-12-04T01:52:07;34.73;;;19.50;;
8654;SDS011;13500;52.514;13.462;2023-12-04T01:54:35;34.70;;;19.73;;
8654;SDS011;13500;52.514;13.462;2023-12-04T01:57:04;32.47;;;19.17;;
8654;SDS011;13500;52.514;13.462;2023-12-04T01:59:33;39.03;;;19.67;;
8654;SDS011;13500;52.514;13.462;2023-12-04T02:02:02;34.83;;;19.70;;
8654;SDS011;13500;52.514;13.462;2023-12-04T02:04:31;34.87;;;19.63;;
8654;SDS011;13500;52.514;13.462;2023-12-04T02:07:00;35.53;;;19.87;;
8654;SDS011;13500;52.514;13.462;2023-12-04T02:09:29;38.07;;;20.60;;
8654;SDS011;13500;52.514;13.462;2023-12-04T02:11:58;37.93;;;20.20;;
8654;SDS011;13500;52.514;13.462;2023-12-04T02:14:26;35.37;;;19.67;;
8654;SDS011;13500;52.514;13.462;2023-12-04T02:16:55;37.33;;;20.00;;
8654;SDS011;13500;52.514;13.462;2023-12-04T02:19:24;37.33;;;20.97;;
8654;SDS011;13500;52.514;13.462;2023-12-04T02:21:52;35.33;;;18.70;;
8654;SDS011;13500;52.514;13.462;2023-12-04T02:24:21;38.43;;;21.70;;
8654;SDS011;13500;52.514;13.462;2023-12-04T02:26:52;32.47;;;18.37;;
8654;SDS011;13500;52.514;13.462;2023-12-04T02:29:23;31.40;;;18.60;;
8654;SDS011;13500;52.514;13.462;2023-12-04T02:31:56;35.70;;;19.43;;
8654;SDS011;13500;52.514;13.462;2023-12-04T02:34:24;38.10;;;19.93;;
8654;SDS011;13500;52.514;13.462;2023-12-04T02:36:53;38.00;;;20.13;;
8654;SDS011;13500;52.514;13.462;2023-12-04T02:39:23;37.17;;;19.67;;
8654;SDS011;13500;52.514;13.462;2023-12-04T02:41:52;33.67;;;19.10;;
8654;SDS011;13500;52.514;13.462;2023-12-04T02:44:20;38.90;;;19.63;;
8654;SDS011;13500;52.514;13.462;2023-12-04T02:46:48;35.60;;;18.80;;
8654;SDS011;13500;52.514;13.462;2023-12-04T02:49:17;38.13;;;20.90;;
8654;SDS011;13500;52.514;13.462;2023-12-04T02:51:45;37.70;;;19.20;;
8654;SDS011;13500;52.514;13.462;2023-12-04T02:54:14;37.90;;;20.70;;
8654;SDS011;13500;52.514;13.462;2023-12-04T02:56:43;37.67;;;19.33;;
8654;SDS011;13500;52.514;13.462;2023-12-04T02:59:11;35.10;;;18.53;;
8654;SDS011;13500;52.514;13.462;2023-12-04T03:01:40;36.97;;;19.63;;
8654;SDS011;13500;52.514;13.462;2023-12-04T03:04:08;33.83;;;19.07;;
8654;SDS011;13500;52.514;13.462;2023-12-04T03:06:37;37.53;;;20.27;;
8654;SDS011;13500;52.514;13.462;2023-12-04T03:09:06;37.33;;;19.10;;
8654;SDS011;13500;52.514;13.462;2023-12-04T03:11:35;33.93;;;20.10;;
8654;SDS011;13500;52.514;13.462;2023-12-04T03:14:07;36.50;;;19.50;;
8654;SDS011;13500;52.514;13.462;2023-12-04T03:16:35;36.67;;;20.07;;
8654;SDS011;13500;52.514;13.462;2023-12-04T03:19:04;36.20;;;19.63;;
8654;SDS011;13500;52.514;13.462;2023-12-04T03:21:33;38.23;;;19.57;;
8654;SDS011;13500;52.514;13.462;2023-12-04T03:24:01;39.57;;;19.93;;
8654;SDS011;13500;52.514;13.462;2023-12-04T03:26:30;39.10;;;20.33;;
8654;SDS011;13500;52.514;13.462;2023-12-04T03:28:59;38.03;;;20.00;;
8654;SDS011;13500;52.514;13.462;2023-12-04T03:31:28;38.30;;;19.67;;
8654;SDS011;13500;52.514;13.462;2023-12-04T03:33:58;37.17;;;21.07;;
8654;SDS011;13500;52.514;13.462;2023-12-04T03:36:28;37.93;;;20.20;;
8654;SDS011;13500;52.514;13.462;2023-12-04T03:38:57;36.23;;;18.60;;
8654;SDS011;13500;52.514;13.462;2023-12-04T03:41:26;39.83;;;19.20;;
8654;SDS011;13500;52.514;13.462;2023-12-04T03:43:55;35.37;;;18.43;;
8654;SDS011;13500;52.514;13.462;2023-12-04T03:46:23;36.73;;;20.00;;
8654;SDS011;13500;52.514;13.462;2023-12-04T03:48:54;35.37;;;18.87;;
8654;SDS011;13500;52.514;13.462;2023-12-04T03:51:22;39.27;;;20.93;;
8654;SDS011;13500;52.514;13.462;2023-12-04T03:53:51;36.87;;;20.47;;
8654;SDS011;13500;52.514;13.462;2023-12-04T03:56:19;35.63;;;19.30;;
8654;SDS011;13500;52.514;13.462;2023-12-04T03:58:48;38.17;;;19.53;;
8654;SDS011;13500;52.514;13.462;2023-12-04T04:01:16;32.40;;;18.53;;
8654;SDS011;13500;52.514;13.462;2023-12-04T04:03:44;38.10;;;20.30;;
8654;SDS011;13500;52.514;13.462;2023-12-04T04:06:14;37.27;;;19.83;;
8654;SDS011;13500;52.514;13.462;2023-12-04T04:08:42;34.97;;;19.30;;
8654;SDS011;13500;52.514;13.462;2023-12-04T04:11:10;34.73;;;19.13;;
8654;SDS011;13500;52.514;13.462;2023-12-04T04:13:42;34.70;;;18.90;;
8654;SDS011;13500;52.514;13.462;2023-12-04T04:16:12;34.57;;;18.73;;
8654;SDS011;13500;52.514;13.462;2023-12-04T04:18:42;34.30;;;18.87;;
8654;SDS011;13500;52.514;13.462;2023-12-04T04:21:10;37.00;;;20.17;;
8654;SDS011;13500;52.514;13.462;2023-12-04T04:23:42;32.93;;;18.63;;
8654;SDS011;13500;52.514;13.462;2023-12-04T04:26:12;32.50;;;18.37;;
8654;SDS011;13500;52.514;13.462;2023-12-04T04:28:41;33.37;;;18.00;;
8654;SDS011;13500;52.514;13.462;2023-12-04T04:31:10;32.10;;;17.53;;
8654;SDS011;13500;52.514;13.462;2023-12-04T04:33:39;35.07;;;18.10;;
8654;SDS011;13500;52.514;13.462;2023-12-04T04:36:09;33.23;;;18.17;;
8654;SDS011;13500;52.514;13.462;2023-12-04T04:38:38;33.30;;;17.97;;
8654;SDS011;13500;52.514;13.462;2023-12-04T04:41:12;33.13;;;17.30;;
8654;SDS011;13500;52.514;13.462;2023-12-04T04:43:41;29.57;;;17.07;;
8654;SDS011;13500;52.514;13.462;2023-12-04T04:46:10;33.17;;;18.67;;
8654;SDS011;13500;52.514;13.462;2023-12-04T04:48:39;32.37;;;17.77;;
8654;SDS011;13500;52.514;13.462;2023-12-04T04:51:07;30.97;;;17.90;;
8654;SDS011;13500;52.514;13.462;2023-12-04T04:53:36;35.00;;;19.03;;
8654;SDS011;13500;52.514;13.462;2023-12-04T04:56:08;32.13;;;18.33;;
8654;SDS011;13500;52.514;13.462;2023-12-04T04:58:37;32.33;;;17.67;;
8654;SDS011;13500;52.514;13.462;2023-12-04T05:01:05;29.47;;;17.20;;
8654;SDS011;13500;52.514;13.462;2023-12-04T05:03:34;29.90;;;18.30;;
8654;SDS011;13500;52.514;13.462;2023-12-04T05:06:03;28.67;;;16.50;;
8654;SDS011;13500;52.514;13.462;2023-12-04T05:08:31;31.93;;;17.27;;
8654;SDS011;13500;52.514;13.462;2023-12-04T05:11:00;30.77;;;17.63;;
8654;SDS011;13500;52.514;13.462;2023-12-04T05:13:31;31.97;;;16.33;;
8654;SDS011;13500;52.514;13.462;2023-12-04T05:15:59;31.43;;;16.93;;
8654;SDS011;13500;52.514;13.462;2023-12-04T05:18:27;28.00;;;16.73;;
8654;SDS011;13500;52.514;13.462;2023-12-04T05:20:56;31.93;;;16.80;;
8654;SDS011;13500;52.514;13.462;2023-12-04T05:23:24;29.87;;;17.63;;
8654;SDS011;13500;52.514;13.462;2023-12-04T05:25:53;29.57;;;16.53;;
8654;SDS011;13500;52.514;13.462;2023-12-04T05:28:21;29.10;;;17.30;;
8654;SDS011;13500;52.514;13.462;2023-12-04T05:30:53;29.03;;;15.57;;
8654;SDS011;13500;52.514;13.462;2023-12-04T05:33:21;30.47;;;17.30;;
8654;SDS011;13500;52.514;13.462;2023-12-04T05:35:50;31.23;;;18.27;;
8654;SDS011;13500;52.514;13.462;2023-12-04T05:38:18;31.90;;;17.23;;
8654;SDS011;13500;52.514;13.462;2023-12-04T05:40:47;32.07;;;17.87;;
8654;SDS011;13500;52.514;13.462;2023-12-04T05:43:15;29.77;;;16.50;;
8654;SDS011;13500;52.514;13.462;2023-12-04T05:45:43;28.73;;;16.33;;
8654;SDS011;13500;52.514;13.462;2023-12-04T05:48:13;27.97;;;16.50;;
8654;SDS011;13500;52.514;13.462;2023-12-04T05:50:41;28.40;;;16.50;;
8654;SDS011;13500;52.514;13.462;2023-12-04T05:53:11;28.27;;;17.07;;
8654;SDS011;13500;52.514;13.462;2023-12-04T05:55:40;29.40;;;16.67;;
8654;SDS011;13500;52.514;13.462;2023-12-04T05:58:08;33.53;;;17.73;;
8654;SDS011;13500;52.514;13.462;2023-12-04T06:00:37;29.17;;;17.67;;
8654;SDS011;13500;52.514;13.462;2023-12-04T06:03:05;30.23;;;16.53;;
8654;SDS011;13500;52.514;13.462;2023-12-04T06:05:36;31.63;;;17.77;;
8654;SDS011;13500;52.514;13.462;2023-12-04T06:08:04;32.27;;;17.07;;
8654;SDS011;13500;52.514;13.462;2023-12-04T06:10:33;34.50;;;19.20;;
8654;SDS011;13500;52.514;13.462;2023-12-04T06:13:01;28.27;;;16.57;;
8654;SDS011;13500;52.514;13.462;2023-12-04T06:15:28;31.93;;;17.77;;
8654;SDS011;13500;52.514;13.462;2023-12-04T06:17:56;31.87;;;18.03;;
8654;SDS011;13500;52.514;13.462;2023-12-04T06:20:25;29.47;;;17.60;;
8654;SDS011;13500;52.514;13.462;2023-12-04T06:22:56;32.63;;;18.20;;
8654;SDS011;13500;52.514;13.462;2023-12-04T06:25:25;32.23;;;17.47;;
8654;SDS011;13500;52.514;13.462;2023-12-04T06:27:53;30.37;;;17.90;;
8654;SDS011;13500;52.514;13.462;2023-12-04T06:30:22;30.03;;;18.00;;
8654;SDS011;13500;52.514;13.462;2023-12-04T06:32:51;31.20;;;17.90;;
8654;SDS011;13500;52.514;13.462;2023-12-04T06:35:20;32.47;;;17.23;;
8654;SDS011;13500;52.514;13.462;2023-12-04T06:37:49;29.00;;;17.50;;
8654;SDS011;13500;52.514;13.462;2023-12-04T06:40:21;32.97;;;17.83;;
8654;SDS011;13500;52.514;13.462;2023-12-04T06:42:50;31.67;;;18.60;;
8654;SDS011;13500;52.514;13.462;2023-12-04T06:45:21;31.57;;;17.93;;
8654;SDS011;13500;52.514;13.462;2023-12-04T06:47:49;32.00;;;16.83;;
8654;SDS011;13500;52.514;13.462;2023-12-04T06:50:19;28.17;;;16.93;;
8654;SDS011;13500;52.514;13.462;2023-12-04T06:52:47;31.20;;;18.03;;
8654;SDS011;13500;52.514;13.462;2023-12-04T06:55:16;30.27;;;16.50;;
8654;SDS011;13500;52.514;13.462;2023-12-04T06:57:47;31.20;;;18.43;;
8654;SDS011;13500;52.514;13.462;2023-12-04T07:00:16;33.90;;;17.73;;
8654;SDS011;13500;52.514;13.462;2023-12-04T07:02:49;29.43;;;16.43;;
8654;SDS011;13500;52.514;13.462;2023-12-04T07:05:19;29.90;;;17.07;;
8654;SDS011;13500;52.514;13.462;2023-12-04T07:07:47;30.47;;;16.90;;
8654;SDS011;13500;52.514;13.462;2023-12-04T07:10:16;26.23;;;16.23;;
8654;SDS011;13500;52.514;13.462;2023-12-04T07:12:44;27.10;;;15.60;;
8654;SDS011;13500;52.514;13.462;2023-12-04T07:15:15;28.43;;;17.17;;
8654;SDS011;13500;52.514;13.462;2023-12-04T07:17:43;29.67;;;16.50;;
8654;SDS011;13500;52.514;13.462;2023-12-04T07:20:12;25.73;;;15.03;;
8654;SDS011;13500;52.514;13.462;2023-12-04T07:22:40;28.10;;;16.67;;
8654;SDS011;13500;52.514;13.462;2023-12-04T07:25:10;27.50;;;16.30;;
8654;SDS011;13500;52.514;13.462;2023-12-04T07:27:38;25.70;;;15.30;;
8654;SDS011;13500;52.514;13.462;2023-12-04T07:30:07;27.90;;;15.70;;
8654;SDS011;13500;52.514;13.462;2023-12-04T07:32:38;29.17;;;16.40;;
8654;SDS011;13500;52.514;13.462;2023-12-04T07:35:07;25.57;;;16.83;;
8654;SDS011;13500;52.514;13.462;2023-12-04T07:37:39;25.83;;;14.73;;
8654;SDS011;13500;52.514;13.462;2023-12-04T07:40:08;26.63;;;15.97;;
8654;SDS011;13500;52.514;13.462;2023-12-04T07:42:37;27.23;;;16.67;;
8654;SDS011;13500;52.514;13.462;2023-12-04T07:45:06;28.93;;;17.30;;
8654;SDS011;13500;52.514;13.462;2023-12-04T07:47:38;27.50;;;16.87;;
8654;SDS011;13500;52.514;13.462;2023-12-04T07:50:07;25.23;;;14.47;;
8654;SDS011;13500;52.514;13.462;2023-12-04T07:52:35;29.90;;;17.57;;
8654;SDS011;13500;52.514;13.462;2023-12-04T07:55:04;28.33;;;16.43;;
8654;SDS011;13500;52.514;13.462;2023-12-04T07:57:35;26.63;;;16.60;;
8654;SDS011;13500;52.514;13.462;2023-12-04T08:00:07;26.10;;;14.90;;
8654;SDS011;13500;52.514;13.462;2023-12-04T08:02:39;25.07;;;16.03;;
8654;SDS011;13500;52.514;13.462;2023-12-04T08:05:11;24.37;;;15.47;;
8654;SDS011;13500;52.514;13.462;2023-12-04T08:07:40;26.90;;;16.30;;
8654;SDS011;13500;52.514;13.462;2023-12-04T08:10:08;28.47;;;15.80;;
8654;SDS011;13500;52.514;13.462;2023-12-04T08:12:40;28.60;;;15.10;;
8654;SDS011;13500;52.514;13.462;2023-12-04T08:15:08;26.57;;;15.77;;
8654;SDS011;13500;52.514;13.462;2023-12-04T08:17:37;25.73;;;16.23;;
8654;SDS011;13500;52.514;13.462;2023-12-04T08:20:10;25.33;;;15.70;;
8654;SDS011;13500;52.514;13.462;2023-12-04T08:22:50;27.87;;;16.57;;
8654;SDS011;13500;52.514;13.462;2023-12-04T08:25:19;27.90;;;16.03;;
8654;SDS011;13500;52.514;13.462;2023-12-04T08:27:48;25.37;;;15.13;;
8654;SDS011;13500;52.514;13.462;2023-12-04T08:30:19;25.73;;;16.17;;
8654;SDS011;13500;52.514;13.462;2023-12-04T08:32:49;26.73;;;16.27;;
8654;SDS011;13500;52.514;13.462;2023-12-04T08:35:20;31.90;;;16.47;;
8654;SDS011;13500;52.514;13.462;2023-12-04T08:37:50;28.00;;;16.03;;
8654;SDS011;13500;52.514;13.462;2023-12-04T08:40:21;28.67;;;16.53;;
8654;SDS011;13500;52.514;13.462;2023-12-04T08:42:49;25.00;;;15.27;;
8654;SDS011;13500;52.514;13.462;2023-12-04T08:45:19;24.80;;;14.97;;
8654;SDS011;13500;52.514;13.462;2023-12-04T08:47:47;25.00;;;15.30;;
8654;SDS011;13500;52.514;13.462;2023-12-04T08:50:17;24.43;;;15.20;;
8654;SDS011;13500;52.514;13.462;2023-12-04T08:52:48;25.67;;;15.00;;
8654;SDS011;13500;52.514;13.462;2023-12-04T08:55:17;24.50;;;15.47;;
8654;SDS011;13500;52.514;13.462;2023-12-04T08:57:46;21.30;;;14.20;;
8654;SDS011;13500;52.514;13.462;2023-12-04T09:00:14;20.57;;;12.30;;
8654;SDS011;13500;52.514;13.462;2023-12-04T09:02:44;23.60;;;14.43;;
8654;SDS011;13500;52.514;13.462;2023-12-04T09:05:24;69.63;;;30.40;;
8654;SDS011;13500;52.514;13.462;2023-12-04T09:07:54;24.73;;;15.47;;
8654;SDS011;13500;52.514;13.462;2023-12-04T09:10:42;23.87;;;14.67;;
8654;SDS011;13500;52.514;13.462;2023-12-04T09:13:30;22.17;;;14.30;;
8654;SDS011;13500;52.514;13.462;2023-12-04T09:16:00;23.53;;;14.13;;
8654;SDS011;13500;52.514;13.462;2023-12-04T09:18:29;23.40;;;15.23;;
8654;SDS011;13500;52.514;13.462;2023-12-04T09:21:01;20.53;;;14.10;;
8654;SDS011;13500;52.514;13.462;2023-12-04T09:23:32;24.37;;;14.27;;
8654;SDS011;13500;52.514;13.462;2023-12-04T09:26:01;22.83;;;14.17;;
8654;SDS011;13500;52.514;13.462;2023-12-04T09:28:31;24.27;;;14.57;;
8654;SDS011;13500;52.514;13.462;2023-12-04T09:31:04;22.23;;;14.67;;
8654;SDS011;13500;52.514;13.462;2023-12-04T09:33:40;22.00;;;13.70;;
8654;SDS011;13500;52.514;13.462;2023-12-04T09:36:12;22.30;;;13.47;;
8654;SDS011;13500;52.514;13.462;2023-12-04T09:38:43;20.57;;;13.27;;
8654;SDS011;13500;52.514;13.462;2023-12-04T09:41:12;23.07;;;13.20;;
8654;SDS011;13500;52.514;13.462;2023-12-04T09:43:40;19.13;;;13.27;;
8654;SDS011;13500;52.514;13.462;2023-12-04T09:46:09;19.90;;;12.50;;
8654;SDS011;13500;52.514;13.462;2023-12-04T09:48:40;19.03;;;12.67;;
8654;SDS011;13500;52.514;13.462;2023-12-04T09:51:11;20.30;;;13.03;;
8654;SDS011;13500;52.514;13.462;2023-12-04T09:53:47;21.73;;;13.90;;
8654;SDS011;13500;52.514;13.462;2023-12-04T09:56:15;24.43;;;15.57;;
8654;SDS011;13500;52.514;13.462;2023-12-04T09:58:45;25.77;;;16.67;;
8654;SDS011;13500;52.514;13.462;2023-12-04T10:01:13;20.87;;;13.80;;
8654;SDS011;13500;52.514;13.462;2023-12-04T10:03:51;21.27;;;13.50;;
8654;SDS011;13500;52.514;13.462;2023-12-04T10:06:26;19.83;;;11.67;;
8654;SDS011;13500;52.514;13.462;2023-12-04T10:08:57;16.40;;;11.70;;
8654;SDS011;13500;52.514;13.462;2023-12-04T10:11:26;21.00;;;12.43;;
8654;SDS011;13500;52.514;13.462;2023-12-04T10:13:54;19.63;;;12.30;;
8654;SDS011;13500;52.514;13.462;2023-12-04T10:16:31;20.70;;;12.53;;
8654;SDS011;13500;52.514;13.462;2023-12-04T10:19:17;23.27;;;13.40;;
8654;SDS011;13500;52.514;13.462;2023-12-04T10:21:49;20.20;;;12.83;;
8654;SDS011;13500;52.514;13.462;2023-12-04T10:24:29;19.03;;;12.43;;
8654;SDS011;13500;52.514;13.462;2023-12-04T10:27:01;19.83;;;11.73;;
8654;SDS011;13500;52.514;13.462;2023-12-04T10:29:39;17.83;;;11.67;;
8654;SDS011;13500;52.514;13.462;2023-12-04T10:32:09;17.57;;;12.13;;
8654;SDS011;13500;52.514;13.462;2023-12-04T10:34:38;19.37;;;12.97;;
8654;SDS011;13500;52.514;13.462;2023-12-04T10:37:09;19.63;;;13.93;;
8654;SDS011;13500;52.514;13.462;2023-12-04T10:39:46;17.07;;;11.53;;
8654;SDS011;13500;52.514;13.462;2023-12-04T10:42:24;18.20;;;11.80;;
8654;SDS011;13500;52.514;13.462;2023-12-04T10:44:56;15.37;;;10.77;;
8654;SDS011;13500;52.514;13.462;2023-12-04T10:47:29;15.87;;;11.57;;
8654;SDS011;13500;52.514;13.462;2023-12-04T10:49:59;17.67;;;11.63;;
8654;SDS011;13500;52.514;13.462;2023-12-04T10:52:30;15.67;;;10.67;;
8654;SDS011;13500;52.514;13.462;2023-12-04T10:55:05;17.93;;;11.47;;
8654;SDS011;13500;52.514;13.462;2023-12-04T10:57:36;16.07;;;11.03;;
8654;SDS011;13500;52.514;13.462;2023-12-04T11:00:06;18.47;;;12.00;;
8654;SDS011;13500;52.514;13.462;2023-12-04T11:02:40;16.30;;;11.77;;
8654;SDS011;13500;52.514;13.462;2023-12-04T11:05:14;17.37;;;10.97;;
8654;SDS011;13500;52.514;13.462;2023-12-04T11:07:48;16.20;;;11.00;;
8654;SDS011;13500;52.514;13.462;2023-12-04T11:10:45;15.93;;;10.33;;
8654;SDS011;13500;52.514;13.462;2023-12-04T11:13:21;18.70;;;11.20;;
8654;SDS011;13500;52.514;13.462;2023-12-04T11:15:50;15.27;;;10.30;;
8654;SDS011;13500;52.514;13.462;2023-12-04T11:18:21;16.17;;;10.83;;
8654;SDS011;13500;52.514;13.462;2023-12-04T11:20:56;16.97;;;11.10;;
8654;SDS011;13500;52.514;13.462;2023-12-04T11:23:26;15.07;;;10.00;;
8654;SDS011;13500;52.514;13.462;2023-12-04T11:25:57;15.87;;;10.90;;
8654;SDS011;13500;52.514;13.462;2023-12-04T11:28:26;14.03;;;10.03;;
8654;SDS011;13500;52.514;13.462;2023-12-04T11:30:55;14.70;;;10.50;;
8654;SDS011;13500;52.514;13.462;2023-12-04T11:33:25;16.27;;;10.77;;
8654;SDS011;13500;52.514;13.462;2023-12-04T11:35:58;16.43;;;10.90;;
8654;SDS011;13500;52.514;13.462;2023-12-04T11:38:43;15.87;;;10.27;;
8654;SDS011;13500;52.514;13.462;2023-12-04T11:41:18;16.07;;;9.57;;
8654;SDS011;13500;52.514;13.462;2023-12-04T11:43:54;13.93;;;9.63;;
8654;SDS011;13500;52.514;13.462;2023-12-04T11:46:25;16.77;;;11.03;;
8654;SDS011;13500;52.514;13.462;2023-12-04T11:48:55;14.40;;;9.90;;
8654;SDS011;13500;52.514;13.462;2023-12-04T11:54:21;19.10;;;10.53;;
8654;SDS011;13500;52.514;13.462;2023-12-04T11:56:58;16.37;;;10.30;;
8654;SDS011;13500;52.514;13.462;2023-12-04T11:59:52;14.43;;;10.37;;
8654;SDS011;13500;52.514;13.462;2023-12-04T12:02:38;13.13;;;8.90;;
8654;SDS011;13500;52.514;13.462;2023-12-04T12:05:27;13.73;;;8.67;;
8654;SDS011;13500;52.514;13.462;2023-12-04T12:07:59;15.93;;;9.87;;
8654;SDS011;13500;52.514;13.462;2023-12-04T12:10:29;15.03;;;10.07;;
8654;SDS011;13500;52.514;13.462;2023-12-04T12:12:59;15.30;;;10.43;;
8654;SDS011;13500;52.514;13.462;2023-12-04T12:15:28;12.60;;;9.30;;
8654;SDS011;13500;52.514;13.462;2023-12-04T12:17:57;13.97;;;9.33;;
8654;SDS011;13500;52.514;13.462;2023-12-04T12:20:26;13.43;;;9.80;;
8654;SDS011;13500;52.514;13.462;2023-12-04T12:22:55;13.50;;;9.17;;
8654;SDS011;13500;52.514;13.462;2023-12-04T12:25:23;14.03;;;9.70;;
8654;SDS011;13500;52.514;13.462;2023-12-04T12:27:53;13.30;;;9.43;;
8654;SDS011;13500;52.514;13.462;2023-12-04T12:30:23;16.07;;;9.37;;
8654;SDS011;13500;52.514;13.462;2023-12-04T12:32:52;15.73;;;10.57;;
8654;SDS011;13500;52.514;13.462;2023-12-04T12:35:22;17.17;;;10.13;;
8654;SDS011;13500;52.514;13.462;2023-12-04T12:37:51;17.27;;;10.67;;
8654;SDS011;13500;52.514;13.462;2023-12-04T12:40:21;14.60;;;10.27;;
8654;SDS011;13500;52.514;13.462;2023-12-04T12:42:50;13.17;;;9.80;;
8654;SDS011;13500;52.514;13.462;2023-12-04T12:45:20;16.47;;;12.03;;
8654;SDS011;13500;52.514;13.462;2023-12-04T12:47:50;16.97;;;10.83;;
8654;SDS011;13500;52.514;13.462;2023-12-04T12:50:19;14.33;;;9.87;;
8654;SDS011;13500;52.514;13.462;2023-12-04T12:52:48;17.10;;;10.50;;
8654;SDS011;13500;52.514;13.462;2023-12-04T12:55:22;16.77;;;10.30;;
8654;SDS011;13500;52.514;13.462;2023-12-04T12:57:55;15.10;;;10.07;;
8654;SDS011;13500;52.514;13.462;2023-12-04T13:00:24;15.07;;;10.03;;
8654;SDS011;13500;52.514;13.462;2023-12-04T13:02:54;17.03;;;10.37;;
8654;SDS011;13500;52.514;13.462;2023-12-04T13:05:25;12.87;;;9.57;;
8654;SDS011;13500;52.514;13.462;2023-12-04T13:07:55;14.43;;;9.87;;
8654;SDS011;13500;52.514;13.462;2023-12-04T13:10:24;17.20;;;11.03;;
8654;SDS011;13500;52.514;13.462;2023-12-04T13:12:54;14.23;;;9.80;;
8654;SDS011;13500;52.514;13.462;2023-12-04T13:15:24;13.23;;;9.53;;
8654;SDS011;13500;52.514;13.462;2023-12-04T13:17:53;14.17;;;10.03;;
8654;SDS011;13500;52.514;13.462;2023-12-04T13:20:23;16.37;;;10.77;;
8654;SDS011;13500;52.514;13.462;2023-12-04T13:22:53;15.13;;;10.37;;
8654;SDS011;13500;52.514;13.462;2023-12-04T13:25:22;17.97;;;10.93;;
8654;SDS011;13500;52.514;13.462;2023-12-04T13:27:56;15.10;;;10.33;;
8654;SDS011;13500;52.514;13.462;2023-12-04T13:30:26;18.13;;;10.70;;
8654;SDS011;13500;52.514;13.462;2023-12-04T13:32:57;15.53;;;9.70;;
8654;SDS011;13500;52.514;13.462;2023-12-04T13:35:26;13.13;;;9.80;;
8654;SDS011;13500;52.514;13.462;2023-12-04T13:37:57;14.30;;;9.67;;
8654;SDS011;13500;52.514;13.462;2023-12-04T13:40:26;16.60;;;10.80;;
8654;SDS011;13500;52.514;13.462;2023-12-04T13:42:58;15.20;;;10.30;;
8654;SDS011;13500;52.514;13.462;2023-12-04T13:45:44;16.97;;;11.13;;
8654;SDS011;13500;52.514;13.462;2023-12-04T13:48:16;15.20;;;10.20;;
8654;SDS011;13500;52.514;13.462;2023-12-04T13:50:48;14.00;;;9.73;;
8654;SDS011;13500;52.514;13.462;2023-12-04T13:53:20;13.90;;;9.93;;
8654;SDS011;13500;52.514;13.462;2023-12-04T13:55:55;14.40;;;10.03;;
8654;SDS011;13500;52.514;13.462;2023-12-04T13:58:39;17.67;;;10.67;;
8654;SDS011;13500;52.514;13.462;2023-12-04T14:01:11;16.73;;;10.30;;
8654;SDS011;13500;52.514;13.462;2023-12-04T14:03:44;16.40;;;11.03;;
8654;SDS011;13500;52.514;13.462;2023-12-04T14:06:16;16.57;;;11.23;;
8654;SDS011;13500;52.514;13.462;2023-12-04T14:08:45;16.10;;;10.63;;
8654;SDS011;13500;52.514;13.462;2023-12-04T14:11:16;15.33;;;10.97;;
8654;SDS011;13500;52.514;13.462;2023-12-04T14:13:44;16.63;;;11.40;;
8654;SDS011;13500;52.514;13.462;2023-12-04T14:16:16;17.20;;;11.63;;
8654;SDS011;13500;52.514;13.462;2023-12-04T14:18:47;18.23;;;11.90;;
8654;SDS011;13500;52.514;13.462;2023-12-04T14:21:15;16.30;;;11.47;;
8654;SDS011;13500;52.514;13.462;2023-12-04T14:23:44;17.23;;;10.73;;
8654;SDS011;13500;52.514;13.462;2023-12-04T14:26:13;19.57;;;12.20;;
8654;SDS011;13500;52.514;13.462;2023-12-04T14:28:43;17.43;;;11.70;;
8654;SDS011;13500;52.514;13.462;2023-12-04T14:31:11;17.63;;;11.67;;
8654;SDS011;13500;52.514;13.462;2023-12-04T14:33:40;16.20;;;11.20;;
8654;SDS011;13500;52.514;13.462;2023-12-04T14:36:13;18.07;;;10.67;;
8654;SDS011;13500;52.514;13.462;2023-12-04T14:38:44;17.23;;;11.93;;
8654;SDS011;13500;52.514;13.462;2023-12-04T14:41:14;16.73;;;11.73;;
8654;SDS011;13500;52.514;13.462;2023-12-04T14:43:42;16.47;;;11.73;;